sensor_id;sensor_type;location;lat;lon;timestamp;pressure;altitude;pressure_sealevel;temperature;humidity
33454;BME280;39400;49.744;7.012;2023-06-10T00:01:02;95697.22;;;17.95;73.82
33454;BME280;39400;49.744;7.012;2023-06-10T00:03:27;95698.75;;;17.96;73.35
33454;BME280;39400;49.744;7.012;2023-06-10T00:05:53;95706.78;;;17.94;73.98
33454;BME280;39400;49.744;7.012;2023-06-10T00:08:18;95700.22;;;17.88;74.08
33454;BME280;39400;49.744;7.012;2023-06-10T00:10:43;95708.34;;;17.82;74.68
33454;BME280;39400;49.744;7.012;2023-06-10T00:13:08;95707.22;;;17.80;75.03
33454;BME280;39400;49.744;7.012;2023-06-10T00:15:34;95698.56;;;17.78;74.73
33454;BME280;39400;49.744;7.012;2023-06-10T00:17:59;95703.78;;;17.76;75.24
33454;BME280;39400;49.744;7.012;2023-06-10T00:20:24;95704.44;;;17.80;74.78
33454;BME280;39400;49.744;7.012;2023-06-10T00:22:50;95712.56;;;17.87;74.39
33454;BME280;39400;49.744;7.012;2023-06-10T00:25:15;95705.34;;;17.90;74.15
33454;BME280;39400;49.744;7.012;2023-06-10T00:27:41;95703.56;;;17.83;74.62
33454;BME280;39400;49.744;7.012;2023-06-10T00:30:07;95703.00;;;17.88;74.21
33454;BME280;39400;49.744;7.012;2023-06-10T00:32:33;95705.69;;;17.79;74.71
33454;BME280;39400;49.744;7.012;2023-06-10T00:34:58;95703.25;;;17.81;74.55
33454;BME280;39400;49.744;7.012;2023-06-10T00:37:24;95704.56;;;17.76;74.96
33454;BME280;39400;49.744;7.012;2023-06-10T00:39:49;95713.59;;;17.80;74.31
33454;BME280;39400;49.744;7.012;2023-06-10T00:42:15;95699.13;;;17.86;74.04
33454;BME280;39400;49.744;7.012;2023-06-10T00:44:40;95703.25;;;17.81;74.11
33454;BME280;39400;49.744;7.012;2023-06-10T00:47:06;95696.22;;;17.89;73.76
33454;BME280;39400;49.744;7.012;2023-06-10T00:49:32;95698.22;;;17.89;73.73
33454;BME280;39400;49.744;7.012;2023-06-10T00:51:58;95703.00;;;17.88;73.79
33454;BME280;39400;49.744;7.012;2023-06-10T00:54:24;95702.25;;;17.88;73.53
33454;BME280;39400;49.744;7.012;2023-06-10T00:56:50;95701.44;;;17.87;73.42
33454;BME280;39400;49.744;7.012;2023-06-10T00:59:15;95708.81;;;17.81;73.65
33454;BME280;39400;49.744;7.012;2023-06-10T01:01:41;95697.69;;;17.81;73.37
33454;BME280;39400;49.744;7.012;2023-06-10T01:04:07;95701.66;;;17.80;73.47
33454;BME280;39400;49.744;7.012;2023-06-10T01:06:54;95703.44;;;17.74;73.60
33454;BME280;39400;49.744;7.012;2023-06-10T01:09:26;95707.00;;;17.74;73.67
33454;BME280;39400;49.744;7.012;2023-06-10T01:12:10;95706.66;;;17.72;73.28
33454;BME280;39400;49.744;7.012;2023-06-10T01:14:37;95698.00;;;17.70;73.50
33454;BME280;39400;49.744;7.012;2023-06-10T01:17:02;95704.34;;;17.71;72.99
33454;BME280;39400;49.744;7.012;2023-06-10T01:19:28;95704.22;;;17.74;72.94
33454;BME280;39400;49.744;7.012;2023-06-10T01:21:54;95706.56;;;17.76;72.75
33454;BME280;39400;49.744;7.012;2023-06-10T01:24:19;95701.00;;;17.76;72.53
33454;BME280;39400;49.744;7.012;2023-06-10T01:26:48;95695.44;;;17.76;72.35
33454;BME280;39400;49.744;7.012;2023-06-10T01:29:30;95695.22;;;17.83;71.84
33454;BME280;39400;49.744;7.012;2023-06-10T01:32:06;95701.56;;;17.83;71.49
33454;BME280;39400;49.744;7.012;2023-06-10T01:34:35;95705.69;;;17.79;71.82
33454;BME280;39400;49.744;7.012;2023-06-10T01:37:00;95697.44;;;17.75;71.47
33454;BME280;39400;49.744;7.012;2023-06-10T01:39:27;95701.78;;;17.76;71.39
33454;BME280;39400;49.744;7.012;2023-06-10T01:41:53;95705.00;;;17.75;71.58
33454;BME280;39400;49.744;7.012;2023-06-10T01:44:22;95705.38;;;17.77;71.28
33454;BME280;39400;49.744;7.012;2023-06-10T01:46:48;95702.22;;;17.75;71.25
33454;BME280;39400;49.744;7.012;2023-06-10T01:49:14;95700.66;;;17.74;71.33
33454;BME280;39400;49.744;7.012;2023-06-10T01:51:41;95706.66;;;17.72;71.38
33454;BME280;39400;49.744;7.012;2023-06-10T01:54:07;95705.88;;;17.72;71.53
33454;BME280;39400;49.744;7.012;2023-06-10T01:56:33;95709.91;;;17.71;71.64
33454;BME280;39400;49.744;7.012;2023-06-10T01:58:58;95709.56;;;17.69;71.47
33454;BME280;39400;49.744;7.012;2023-06-10T02:01:24;95698.91;;;17.67;71.55
33454;BME280;39400;49.744;7.012;2023-06-10T02:03:50;95706.47;;;17.67;71.72
33454;BME280;39400;49.744;7.012;2023-06-10T02:06:15;95709.25;;;17.67;71.73
33454;BME280;39400;49.744;7.012;2023-06-10T02:08:40;95716.91;;;17.63;71.38
33454;BME280;39400;49.744;7.012;2023-06-10T02:11:06;95716.59;;;17.61;71.98
33454;BME280;39400;49.744;7.012;2023-06-10T02:13:31;95711.03;;;17.61;71.50
33454;BME280;39400;49.744;7.012;2023-06-10T02:15:56;95721.38;;;17.60;71.52
33454;BME280;39400;49.744;7.012;2023-06-10T02:18:21;95720.78;;;17.52;72.05
33454;BME280;39400;49.744;7.012;2023-06-10T02:20:47;95716.91;;;17.50;72.00
33454;BME280;39400;49.744;7.012;2023-06-10T02:23:12;95727.94;;;17.53;71.79
33454;BME280;39400;49.744;7.012;2023-06-10T02:25:37;95724.03;;;17.51;71.83
33454;BME280;39400;49.744;7.012;2023-06-10T02:28:03;95720.13;;;17.48;72.33
33454;BME280;39400;49.744;7.012;2023-06-10T02:30:28;95721.72;;;17.49;72.32
33454;BME280;39400;49.744;7.012;2023-06-10T02:32:54;95729.91;;;17.40;72.53
33454;BME280;39400;49.744;7.012;2023-06-10T02:35:20;95730.03;;;17.37;73.05
33454;BME280;39400;49.744;7.012;2023-06-10T02:37:45;95726.59;;;17.32;73.05
33454;BME280;39400;49.744;7.012;2023-06-10T02:40:11;95729.47;;;17.29;73.37
33454;BME280;39400;49.744;7.012;2023-06-10T02:42:37;95729.78;;;17.31;73.23
33454;BME280;39400;49.744;7.012;2023-06-10T02:45:04;95723.03;;;17.32;73.06
33454;BME280;39400;49.744;7.012;2023-06-10T02:47:37;95727.00;;;17.31;73.47
33454;BME280;39400;49.744;7.012;2023-06-10T02:50:03;95726.25;;;17.30;73.06
33454;BME280;39400;49.744;7.012;2023-06-10T02:52:31;95731.91;;;17.27;73.37
33454;BME280;39400;49.744;7.012;2023-06-10T02:54:56;95733.47;;;17.28;73.11
33454;BME280;39400;49.744;7.012;2023-06-10T02:57:21;95730.25;;;17.29;72.87
33454;BME280;39400;49.744;7.012;2023-06-10T02:59:46;95730.13;;;17.33;72.79
33454;BME280;39400;49.744;7.012;2023-06-10T03:02:13;95721.47;;;17.31;72.98
33454;BME280;39400;49.744;7.012;2023-06-10T03:04:44;95726.25;;;17.30;72.77
33454;BME280;39400;49.744;7.012;2023-06-10T03:07:13;95722.69;;;17.30;72.70
33454;BME280;39400;49.744;7.012;2023-06-10T03:09:38;95724.81;;;17.26;72.73
33454;BME280;39400;49.744;7.012;2023-06-10T03:12:06;95721.00;;;17.20;72.92
33454;BME280;39400;49.744;7.012;2023-06-10T03:14:37;95724.13;;;17.22;72.71
33454;BME280;39400;49.744;7.012;2023-06-10T03:17:04;95721.00;;;17.20;73.14
33454;BME280;39400;49.744;7.012;2023-06-10T03:19:32;95724.34;;;17.15;73.28
33454;BME280;39400;49.744;7.012;2023-06-10T03:22:07;95723.66;;;17.10;73.55
33454;BME280;39400;49.744;7.012;2023-06-10T03:24:35;95730.78;;;17.11;73.55
33454;BME280;39400;49.744;7.012;2023-06-10T03:27:02;95732.44;;;17.09;73.96
33454;BME280;39400;49.744;7.012;2023-06-10T03:29:28;95733.22;;;17.09;73.84
33454;BME280;39400;49.744;7.012;2023-06-10T03:31:53;95737.22;;;17.08;73.91
33454;BME280;39400;49.744;7.012;2023-06-10T03:34:19;95742.78;;;17.08;74.12
33454;BME280;39400;49.744;7.012;2023-06-10T03:36:44;95733.88;;;17.14;73.50
33454;BME280;39400;49.744;7.012;2023-06-10T03:39:10;95735.78;;;17.17;73.68
33454;BME280;39400;49.744;7.012;2023-06-10T03:41:36;95737.00;;;17.16;73.71
33454;BME280;39400;49.744;7.012;2023-06-10T03:44:01;95735.25;;;17.22;73.19
33454;BME280;39400;49.744;7.012;2023-06-10T03:46:26;95739.00;;;17.28;73.37
33454;BME280;39400;49.744;7.012;2023-06-10T03:48:52;95725.47;;;17.30;72.95
33454;BME280;39400;49.744;7.012;2023-06-10T03:51:18;95732.03;;;17.36;72.77
33454;BME280;39400;49.744;7.012;2023-06-10T03:53:43;95724.25;;;17.44;72.06
33454;BME280;39400;49.744;7.012;2023-06-10T03:56:10;95727.25;;;17.49;71.93
33454;BME280;39400;49.744;7.012;2023-06-10T03:58:35;95726.94;;;17.60;71.76
33454;BME280;39400;49.744;7.012;2023-06-10T04:01:00;95729.25;;;17.62;71.38
33454;BME280;39400;49.744;7.012;2023-06-10T04:03:32;95729.69;;;17.73;71.11
33454;BME280;39400;49.744;7.012;2023-06-10T04:05:58;95729.16;;;17.78;71.06
33454;BME280;39400;49.744;7.012;2023-06-10T04:08:25;95732.25;;;17.67;72.52
33454;BME280;39400;49.744;7.012;2023-06-10T04:10:50;95730.03;;;17.37;74.49
33454;BME280;39400;49.744;7.012;2023-06-10T04:13:16;95728.91;;;17.34;74.94
33454;BME280;39400;49.744;7.012;2023-06-10T04:15:50;95731.47;;;17.28;74.95
33454;BME280;39400;49.744;7.012;2023-06-10T04:18:16;95734.81;;;17.36;74.56
33454;BME280;39400;49.744;7.012;2023-06-10T04:20:43;95736.16;;;17.44;74.38
33454;BME280;39400;49.744;7.012;2023-06-10T04:23:08;95741.16;;;17.37;75.64
33454;BME280;39400;49.744;7.012;2023-06-10T04:25:34;95735.03;;;17.29;76.38
33454;BME280;39400;49.744;7.012;2023-06-10T04:27:59;95741.69;;;17.19;77.01
33454;BME280;39400;49.744;7.012;2023-06-10T04:30:25;95742.56;;;17.16;77.39
33454;BME280;39400;49.744;7.012;2023-06-10T04:32:50;95743.00;;;17.14;77.57
33454;BME280;39400;49.744;7.012;2023-06-10T04:35:17;95752.13;;;17.15;77.50
33454;BME280;39400;49.744;7.012;2023-06-10T04:37:44;95742.44;;;17.06;78.36
33454;BME280;39400;49.744;7.012;2023-06-10T04:40:10;95751.13;;;17.08;78.26
33454;BME280;39400;49.744;7.012;2023-06-10T04:42:36;95748.34;;;17.08;79.15
33454;BME280;39400;49.744;7.012;2023-06-10T04:45:02;95750.91;;;17.16;78.71
33454;BME280;39400;49.744;7.012;2023-06-10T04:47:27;95742.88;;;17.18;79.19
33454;BME280;39400;49.744;7.012;2023-06-10T04:49:52;95750.81;;;17.32;78.58
33454;BME280;39400;49.744;7.012;2023-06-10T04:52:18;95740.81;;;17.47;77.21
33454;BME280;39400;49.744;7.012;2023-06-10T04:54:43;95747.59;;;17.72;75.01
33454;BME280;39400;49.744;7.012;2023-06-10T04:57:09;95747.28;;;17.95;73.56
33454;BME280;39400;49.744;7.012;2023-06-10T04:59:34;95747.47;;;18.14;72.54
33454;BME280;39400;49.744;7.012;2023-06-10T05:01:59;95748.56;;;18.29;71.43
33454;BME280;39400;49.744;7.012;2023-06-10T05:04:25;95748.72;;;18.47;71.13
33454;BME280;39400;49.744;7.012;2023-06-10T05:06:50;95751.91;;;18.59;70.90
33454;BME280;39400;49.744;7.012;2023-06-10T05:09:15;95752.31;;;18.70;70.22
33454;BME280;39400;49.744;7.012;2023-06-10T05:11:41;95755.19;;;18.79;70.17
33454;BME280;39400;49.744;7.012;2023-06-10T05:14:06;95753.13;;;18.92;69.69
33454;BME280;39400;49.744;7.012;2023-06-10T05:16:31;95761.22;;;18.99;70.02
33454;BME280;39400;49.744;7.012;2023-06-10T05:18:57;95761.53;;;19.01;69.00
33454;BME280;39400;49.744;7.012;2023-06-10T05:21:22;95771.22;;;19.10;69.46
33454;BME280;39400;49.744;7.012;2023-06-10T05:23:47;95764.59;;;19.16;69.46
33454;BME280;39400;49.744;7.012;2023-06-10T05:26:12;95766.63;;;19.16;69.43
33454;BME280;39400;49.744;7.012;2023-06-10T05:28:38;95762.66;;;19.26;69.56
33454;BME280;39400;49.744;7.012;2023-06-10T05:31:03;95768.22;;;19.26;69.32
33454;BME280;39400;49.744;7.012;2023-06-10T05:33:28;95765.59;;;19.32;69.77
33454;BME280;39400;49.744;7.012;2023-06-10T05:35:54;95766.09;;;19.39;70.05
33454;BME280;39400;49.744;7.012;2023-06-10T05:38:19;95767.69;;;19.40;69.17
33454;BME280;39400;49.744;7.012;2023-06-10T05:40:45;95775.78;;;19.47;68.82
33454;BME280;39400;49.744;7.012;2023-06-10T05:43:11;95777.38;;;19.58;68.73
33454;BME280;39400;49.744;7.012;2023-06-10T05:45:37;95774.44;;;19.61;68.28
33454;BME280;39400;49.744;7.012;2023-06-10T05:48:02;95768.16;;;19.70;67.79
33454;BME280;39400;49.744;7.012;2023-06-10T05:50:28;95779.31;;;19.70;66.96
33454;BME280;39400;49.744;7.012;2023-06-10T05:52:53;95774.38;;;19.74;67.15
33454;BME280;39400;49.744;7.012;2023-06-10T05:55:18;95778.13;;;19.80;67.00
33454;BME280;39400;49.744;7.012;2023-06-10T05:57:44;95782.50;;;19.90;67.47
33454;BME280;39400;49.744;7.012;2023-06-10T06:00:09;95780.03;;;19.92;67.31
33454;BME280;39400;49.744;7.012;2023-06-10T06:02:40;95778.22;;;19.99;67.06
33454;BME280;39400;49.744;7.012;2023-06-10T06:05:06;95780.84;;;20.02;66.92
33454;BME280;39400;49.744;7.012;2023-06-10T06:07:32;95783.81;;;20.08;66.06
33454;BME280;39400;49.744;7.012;2023-06-10T06:09:58;95790.00;;;20.12;65.77
33454;BME280;39400;49.744;7.012;2023-06-10T06:12:23;95776.38;;;20.14;65.88
33454;BME280;39400;49.744;7.012;2023-06-10T06:14:48;95780.44;;;20.22;65.74
33454;BME280;39400;49.744;7.012;2023-06-10T06:17:13;95786.38;;;20.33;65.77
33454;BME280;39400;49.744;7.012;2023-06-10T06:19:39;95782.03;;;20.41;65.39
33454;BME280;39400;49.744;7.012;2023-06-10T06:22:04;95776.16;;;20.49;65.15
33454;BME280;39400;49.744;7.012;2023-06-10T06:24:29;95781.78;;;20.58;64.97
33454;BME280;39400;49.744;7.012;2023-06-10T06:26:55;95777.75;;;20.68;65.30
33454;BME280;39400;49.744;7.012;2023-06-10T06:29:20;95777.44;;;20.75;65.11
33454;BME280;39400;49.744;7.012;2023-06-10T06:31:45;95780.53;;;20.77;64.54
33454;BME280;39400;49.744;7.012;2023-06-10T06:34:11;95782.09;;;20.78;63.36
33454;BME280;39400;49.744;7.012;2023-06-10T06:36:36;95782.41;;;20.80;64.35
33454;BME280;39400;49.744;7.012;2023-06-10T06:39:01;95779.94;;;20.82;64.18
33454;BME280;39400;49.744;7.012;2023-06-10T06:41:27;95781.47;;;20.93;64.67
33454;BME280;39400;49.744;7.012;2023-06-10T06:43:54;95790.63;;;21.02;65.53
33454;BME280;39400;49.744;7.012;2023-06-10T06:46:23;95792.31;;;21.09;64.64
33454;BME280;39400;49.744;7.012;2023-06-10T06:48:49;95785.81;;;21.21;65.13
33454;BME280;39400;49.744;7.012;2023-06-10T06:51:14;95791.25;;;21.25;64.85
33454;BME280;39400;49.744;7.012;2023-06-10T06:53:39;95798.22;;;21.29;62.67
33454;BME280;39400;49.744;7.012;2023-06-10T06:56:05;95786.72;;;21.36;62.61
33454;BME280;39400;49.744;7.012;2023-06-10T06:58:30;95791.06;;;21.47;63.76
33454;BME280;39400;49.744;7.012;2023-06-10T07:00:55;95794.78;;;21.53;63.04
33454;BME280;39400;49.744;7.012;2023-06-10T07:03:22;95796.16;;;21.57;63.53
33454;BME280;39400;49.744;7.012;2023-06-10T07:05:47;95785.59;;;21.62;63.86
33454;BME280;39400;49.744;7.012;2023-06-10T07:08:12;95795.81;;;21.65;63.37
33454;BME280;39400;49.744;7.012;2023-06-10T07:10:38;95796.97;;;21.58;63.48
33454;BME280;39400;49.744;7.012;2023-06-10T07:13:03;95796.00;;;21.61;63.07
33454;BME280;39400;49.744;7.012;2023-06-10T07:15:28;95799.75;;;21.58;62.74
33454;BME280;39400;49.744;7.012;2023-06-10T07:17:54;95801.59;;;21.61;62.77
33454;BME280;39400;49.744;7.012;2023-06-10T07:20:19;95800.66;;;21.64;62.72
33454;BME280;39400;49.744;7.012;2023-06-10T07:22:44;95805.31;;;21.67;63.01
33454;BME280;39400;49.744;7.012;2023-06-10T07:25:10;95802.34;;;21.71;62.73
33454;BME280;39400;49.744;7.012;2023-06-10T07:27:35;95808.56;;;21.75;61.63
33454;BME280;39400;49.744;7.012;2023-06-10T07:30:00;95811.97;;;21.79;61.75
33454;BME280;39400;49.744;7.012;2023-06-10T07:32:26;95806.81;;;21.87;62.47
33454;BME280;39400;49.744;7.012;2023-06-10T07:34:51;95808.03;;;21.85;61.18
33454;BME280;39400;49.744;7.012;2023-06-10T07:37:16;95811.66;;;21.86;61.37
33454;BME280;39400;49.744;7.012;2023-06-10T07:39:42;95807.25;;;21.94;61.08
33454;BME280;39400;49.744;7.012;2023-06-10T07:42:07;95802.69;;;22.06;61.19
33454;BME280;39400;49.744;7.012;2023-06-10T07:44:32;95814.97;;;22.08;60.61
33454;BME280;39400;49.744;7.012;2023-06-10T07:46:57;95804.44;;;22.03;61.50
33454;BME280;39400;49.744;7.012;2023-06-10T07:49:23;95807.69;;;22.02;60.74
33454;BME280;39400;49.744;7.012;2023-06-10T07:51:49;95807.06;;;22.07;62.27
33454;BME280;39400;49.744;7.012;2023-06-10T07:54:14;95812.63;;;22.16;60.84
33454;BME280;39400;49.744;7.012;2023-06-10T07:56:40;95816.00;;;22.29;62.42
33454;BME280;39400;49.744;7.012;2023-06-10T07:59:05;95815.94;;;22.39;59.97
33454;BME280;39400;49.744;7.012;2023-06-10T08:01:30;95817.63;;;22.45;60.47
33454;BME280;39400;49.744;7.012;2023-06-10T08:03:56;95816.06;;;22.44;61.54
33454;BME280;39400;49.744;7.012;2023-06-10T08:06:21;95814.41;;;22.38;60.76
33454;BME280;39400;49.744;7.012;2023-06-10T08:08:46;95819.00;;;22.50;61.01
33454;BME280;39400;49.744;7.012;2023-06-10T08:11:13;95816.16;;;22.59;59.29
33454;BME280;39400;49.744;7.012;2023-06-10T08:13:38;95819.06;;;22.65;59.87
33454;BME280;39400;49.744;7.012;2023-06-10T08:16:04;95820.44;;;22.69;59.14
33454;BME280;39400;49.744;7.012;2023-06-10T08:18:29;95824.75;;;22.79;59.71
33454;BME280;39400;49.744;7.012;2023-06-10T08:20:54;95819.41;;;22.82;58.82
33454;BME280;39400;49.744;7.012;2023-06-10T08:23:20;95825.31;;;22.84;57.72
33454;BME280;39400;49.744;7.012;2023-06-10T08:25:45;95822.47;;;22.93;59.35
33454;BME280;39400;49.744;7.012;2023-06-10T08:28:11;95823.94;;;23.03;59.11
33454;BME280;39400;49.744;7.012;2023-06-10T08:30:36;95822.72;;;23.04;57.53
33454;BME280;39400;49.744;7.012;2023-06-10T08:33:01;95815.78;;;23.14;57.77
33454;BME280;39400;49.744;7.012;2023-06-10T08:35:27;95817.31;;;23.15;59.46
33454;BME280;39400;49.744;7.012;2023-06-10T08:37:52;95822.75;;;23.19;61.07
33454;BME280;39400;49.744;7.012;2023-06-10T08:40:17;95827.28;;;23.16;60.05
33454;BME280;39400;49.744;7.012;2023-06-10T08:42:45;95827.78;;;23.30;58.17
33454;BME280;39400;49.744;7.012;2023-06-10T08:45:17;95823.16;;;23.41;58.12
33454;BME280;39400;49.744;7.012;2023-06-10T08:47:45;95819.69;;;23.32;59.43
33454;BME280;39400;49.744;7.012;2023-06-10T08:50:10;95817.53;;;23.26;59.27
33454;BME280;39400;49.744;7.012;2023-06-10T08:52:37;95822.94;;;23.15;60.24
33454;BME280;39400;49.744;7.012;2023-06-10T08:55:12;95821.97;;;23.18;59.30
33454;BME280;39400;49.744;7.012;2023-06-10T08:57:41;95835.19;;;23.42;61.33
33454;BME280;39400;49.744;7.012;2023-06-10T09:00:07;95829.94;;;23.64;58.21
33454;BME280;39400;49.744;7.012;2023-06-10T09:02:33;95828.81;;;23.71;58.67
33454;BME280;39400;49.744;7.012;2023-06-10T09:04:59;95818.94;;;23.76;58.82
33454;BME280;39400;49.744;7.012;2023-06-10T09:07:25;95822.22;;;23.59;58.20
33454;BME280;39400;49.744;7.012;2023-06-10T09:09:51;95826.22;;;23.67;58.21
33454;BME280;39400;49.744;7.012;2023-06-10T09:12:17;95827.22;;;23.55;57.47
33454;BME280;39400;49.744;7.012;2023-06-10T09:14:42;95813.88;;;23.50;55.31
33454;BME280;39400;49.744;7.012;2023-06-10T09:17:07;95820.25;;;23.65;55.74
33454;BME280;39400;49.744;7.012;2023-06-10T09:19:33;95817.19;;;23.78;55.97
33454;BME280;39400;49.744;7.012;2023-06-10T09:22:00;95826.88;;;23.92;56.13
33454;BME280;39400;49.744;7.012;2023-06-10T09:24:25;95822.53;;;23.91;54.54
33454;BME280;39400;49.744;7.012;2023-06-10T09:27:07;95820.97;;;24.05;55.94
33454;BME280;39400;49.744;7.012;2023-06-10T09:29:54;95827.06;;;24.18;54.53
33454;BME280;39400;49.744;7.012;2023-06-10T09:32:20;95819.97;;;24.23;54.32
33454;BME280;39400;49.744;7.012;2023-06-10T09:34:46;95817.53;;;24.30;54.65
33454;BME280;39400;49.744;7.012;2023-06-10T09:37:12;95830.78;;;24.44;55.24
33454;BME280;39400;49.744;7.012;2023-06-10T09:39:38;95823.00;;;24.54;53.77
33454;BME280;39400;49.744;7.012;2023-06-10T09:42:17;95823.31;;;24.56;52.31
33454;BME280;39400;49.744;7.012;2023-06-10T09:44:42;95813.03;;;24.53;53.60
33454;BME280;39400;49.744;7.012;2023-06-10T09:47:20;95815.56;;;24.51;52.85
33454;BME280;39400;49.744;7.012;2023-06-10T09:49:45;95810.91;;;24.48;53.02
33454;BME280;39400;49.744;7.012;2023-06-10T09:52:10;95814.56;;;24.54;53.70
33454;BME280;39400;49.744;7.012;2023-06-10T09:54:36;95823.72;;;24.49;54.05
33454;BME280;39400;49.744;7.012;2023-06-10T09:57:07;95817.69;;;24.56;53.40
33454;BME280;39400;49.744;7.012;2023-06-10T09:59:33;95814.59;;;24.39;53.89
33454;BME280;39400;49.744;7.012;2023-06-10T10:01:58;95812.09;;;24.41;51.35
33454;BME280;39400;49.744;7.012;2023-06-10T10:04:24;95803.19;;;24.43;51.20
33454;BME280;39400;49.744;7.012;2023-06-10T10:06:49;95813.81;;;24.39;51.84
33454;BME280;39400;49.744;7.012;2023-06-10T10:09:15;95809.94;;;24.51;52.81
33454;BME280;39400;49.744;7.012;2023-06-10T10:11:40;95808.41;;;24.35;49.62
33454;BME280;39400;49.744;7.012;2023-06-10T10:14:06;95811.78;;;24.39;52.30
33454;BME280;39400;49.744;7.012;2023-06-10T10:16:37;95811.53;;;24.23;52.36
33454;BME280;39400;49.744;7.012;2023-06-10T10:22:08;95822.25;;;24.39;48.10
33454;BME280;39400;49.744;7.012;2023-06-10T10:24:45;95813.19;;;24.64;48.90
33454;BME280;39400;49.744;7.012;2023-06-10T10:27:18;95815.16;;;24.79;48.88
33454;BME280;39400;49.744;7.012;2023-06-10T10:29:51;95807.44;;;24.94;47.80
33454;BME280;39400;49.744;7.012;2023-06-10T10:32:18;95811.66;;;25.04;48.76
33454;BME280;39400;49.744;7.012;2023-06-10T10:34:49;95812.84;;;24.98;48.22
33454;BME280;39400;49.744;7.012;2023-06-10T10:37:17;95808.00;;;24.98;48.43
33454;BME280;39400;49.744;7.012;2023-06-10T10:39:42;95808.00;;;24.98;48.71
33454;BME280;39400;49.744;7.012;2023-06-10T10:42:08;95811.81;;;25.16;49.06
33454;BME280;39400;49.744;7.012;2023-06-10T10:44:34;95821.66;;;25.26;49.41
33454;BME280;39400;49.744;7.012;2023-06-10T10:47:02;95809.06;;;25.47;50.15
33454;BME280;39400;49.744;7.012;2023-06-10T10:49:29;95803.38;;;25.68;50.87
33454;BME280;39400;49.744;7.012;2023-06-10T10:51:59;95808.28;;;25.73;48.22
33454;BME280;39400;49.744;7.012;2023-06-10T10:54:32;95816.31;;;25.80;47.76
33454;BME280;39400;49.744;7.012;2023-06-10T10:57:14;95805.41;;;25.93;49.41
33454;BME280;39400;49.744;7.012;2023-06-10T11:02:36;95797.97;;;25.90;45.99
33454;BME280;39400;49.744;7.012;2023-06-10T11:05:02;95801.88;;;25.98;48.85
33454;BME280;39400;49.744;7.012;2023-06-10T11:07:32;95801.97;;;26.09;46.56
33454;BME280;39400;49.744;7.012;2023-06-10T11:15:26;95804.47;;;25.76;46.24
33454;BME280;39400;49.744;7.012;2023-06-10T11:26:12;95792.44;;;25.49;48.35
33454;BME280;39400;49.744;7.012;2023-06-10T11:28:41;95802.84;;;25.64;46.28
33454;BME280;39400;49.744;7.012;2023-06-10T11:31:07;95792.06;;;25.88;46.46
33454;BME280;39400;49.744;7.012;2023-06-10T11:33:32;95794.34;;;26.16;47.40
33454;BME280;39400;49.744;7.012;2023-06-10T11:35:58;95797.63;;;26.14;46.51
33454;BME280;39400;49.744;7.012;2023-06-10T11:38:24;95789.78;;;26.24;46.20
33454;BME280;39400;49.744;7.012;2023-06-10T11:40:50;95787.13;;;26.15;42.85
33454;BME280;39400;49.744;7.012;2023-06-10T11:43:19;95792.97;;;26.05;44.14
33454;BME280;39400;49.744;7.012;2023-06-10T11:45:44;95790.41;;;26.07;45.29
33454;BME280;39400;49.744;7.012;2023-06-10T11:48:10;95784.34;;;25.83;45.12
33454;BME280;39400;49.744;7.012;2023-06-10T11:50:36;95778.97;;;25.85;45.28
33454;BME280;39400;49.744;7.012;2023-06-10T11:53:02;95794.69;;;25.97;45.26
33454;BME280;39400;49.744;7.012;2023-06-10T11:55:47;95794.78;;;26.08;44.57
33454;BME280;39400;49.744;7.012;2023-06-10T11:58:17;95781.72;;;26.11;46.03
33454;BME280;39400;49.744;7.012;2023-06-10T12:00:50;95794.66;;;26.29;45.08
33454;BME280;39400;49.744;7.012;2023-06-10T12:03:16;95793.47;;;26.41;45.54
33454;BME280;39400;49.744;7.012;2023-06-10T12:06:03;95787.53;;;26.71;43.64
33454;BME280;39400;49.744;7.012;2023-06-10T12:08:29;95789.88;;;26.84;45.49
33454;BME280;39400;49.744;7.012;2023-06-10T12:10:55;95786.56;;;26.85;44.42
33454;BME280;39400;49.744;7.012;2023-06-10T12:13:21;95780.53;;;27.15;45.41
33454;BME280;39400;49.744;7.012;2023-06-10T12:15:47;95778.22;;;27.19;42.48
33454;BME280;39400;49.744;7.012;2023-06-10T12:18:19;95771.03;;;27.18;42.26
33454;BME280;39400;49.744;7.012;2023-06-10T12:20:45;95784.16;;;27.21;43.82
33454;BME280;39400;49.744;7.012;2023-06-10T12:23:11;95771.34;;;27.42;44.00
33454;BME280;39400;49.744;7.012;2023-06-10T12:25:37;95772.38;;;27.39;43.96
33454;BME280;39400;49.744;7.012;2023-06-10T12:28:02;95762.34;;;27.16;42.95
33454;BME280;39400;49.744;7.012;2023-06-10T12:30:28;95756.88;;;27.07;42.35
33454;BME280;39400;49.744;7.012;2023-06-10T12:32:53;95768.75;;;27.22;46.33
33454;BME280;39400;49.744;7.012;2023-06-10T12:35:23;95770.66;;;26.88;45.35
33454;BME280;39400;49.744;7.012;2023-06-10T12:38:02;95773.38;;;26.65;47.09
33454;BME280;39400;49.744;7.012;2023-06-10T12:40:33;95774.81;;;27.03;46.05
33454;BME280;39400;49.744;7.012;2023-06-10T12:42:59;95756.94;;;27.18;47.64
33454;BME280;39400;49.744;7.012;2023-06-10T12:48:06;95771.91;;;26.32;46.09
33454;BME280;39400;49.744;7.012;2023-06-10T12:50:32;95764.28;;;26.44;46.20
33454;BME280;39400;49.744;7.012;2023-06-10T12:52:59;95770.13;;;26.78;49.41
33454;BME280;39400;49.744;7.012;2023-06-10T12:55:24;95766.97;;;27.24;47.26
33454;BME280;39400;49.744;7.012;2023-06-10T12:57:50;95769.09;;;27.58;47.80
33454;BME280;39400;49.744;7.012;2023-06-10T13:00:16;95761.59;;;27.32;44.12
33454;BME280;39400;49.744;7.012;2023-06-10T13:02:42;95777.66;;;27.03;44.38
33454;BME280;39400;49.744;7.012;2023-06-10T13:05:07;95768.56;;;26.77;43.42
33454;BME280;39400;49.744;7.012;2023-06-10T13:07:32;95763.63;;;26.61;43.05
33454;BME280;39400;49.744;7.012;2023-06-10T13:09:58;95775.53;;;26.82;44.72
33454;BME280;39400;49.744;7.012;2023-06-10T13:12:25;95770.97;;;27.01;45.05
33454;BME280;39400;49.744;7.012;2023-06-10T13:14:51;95773.34;;;27.14;44.73
33454;BME280;39400;49.744;7.012;2023-06-10T13:17:16;95766.03;;;26.90;45.10
33454;BME280;39400;49.744;7.012;2023-06-10T13:19:41;95767.53;;;26.80;43.26